createdAt,value
2022-09-06T00:08:54.848Z,0.00
2022-09-06T00:20:55.301Z,0.00
2022-09-06T00:32:55.741Z,0.00
2022-09-06T00:44:56.211Z,0.00
2022-09-06T00:56:56.648Z,0.01
2022-09-06T01:08:57.165Z,0.00
2022-09-06T01:20:57.574Z,0.00
2022-09-06T01:32:58.056Z,0.00
2022-09-06T01:44:58.507Z,0.00
2022-09-06T01:56:58.926Z,0.00
2022-09-06T02:08:59.356Z,0.05
2022-09-06T02:20:59.830Z,0.01
2022-09-06T02:33:00.294Z,0.01
2022-09-06T02:45:00.767Z,0.00
2022-09-06T02:57:01.178Z,0.32
2022-09-06T03:09:01.616Z,0.00
2022-09-06T03:21:02.063Z,0.42
2022-09-06T03:33:03.072Z,0.12
2022-09-06T03:45:03.011Z,0.00
2022-09-06T03:57:03.451Z,0.00
2022-09-06T04:09:03.928Z,0.00
2022-09-06T04:21:04.383Z,0.00
2022-09-06T04:33:04.842Z,0.00
2022-09-06T04:45:05.288Z,0.00
2022-09-06T04:57:05.767Z,0.00
2022-09-06T05:09:06.221Z,0.00
2022-09-06T05:21:06.650Z,0.02
2022-09-06T05:33:07.090Z,0.00
2022-09-06T05:45:07.556Z,0.00
2022-09-06T05:57:08.023Z,0.19
2022-09-06T06:09:08.481Z,0.12
2022-09-06T06:21:08.940Z,0.20
2022-09-06T06:33:09.363Z,0.30
2022-09-06T06:45:09.823Z,0.00
2022-09-06T06:57:10.275Z,0.43
2022-09-06T07:09:10.754Z,0.16
2022-09-06T07:21:38.561Z,0.31
2022-09-06T07:33:11.681Z,0.01
2022-09-06T07:45:12.103Z,0.84
2022-09-06T07:57:12.556Z,1.01
2022-09-06T08:09:13.028Z,0.56
2022-09-06T08:21:13.498Z,0.52
2022-09-06T08:33:13.953Z,2.03
2022-09-06T08:45:14.367Z,1.49
2022-09-06T08:57:14.848Z,0.99
2022-09-06T09:09:15.329Z,1.29
2022-09-06T09:21:15.767Z,1.06
2022-09-06T09:33:16.178Z,1.15
2022-09-06T09:45:16.633Z,1.76
2022-09-06T09:57:17.149Z,1.25
2022-09-06T10:09:19.188Z,1.65
2022-09-06T10:21:18.034Z,1.81
2022-09-06T10:33:18.467Z,2.03
2022-09-06T10:45:18.969Z,1.65
2022-09-06T11:09:19.837Z,1.86
2022-09-06T11:21:20.339Z,1.59
2022-09-06T11:33:20.811Z,1.67
2022-09-06T11:45:21.237Z,1.63
2022-09-06T11:57:21.727Z,1.74
2022-09-06T12:09:22.152Z,1.65
2022-09-06T12:21:22.619Z,1.80
2022-09-06T12:33:23.067Z,2.55
2022-09-06T12:45:27.175Z,1.57
2022-09-06T12:57:23.976Z,1.69
2022-09-06T13:09:24.465Z,1.51
2022-09-06T13:21:24.903Z,1.37
2022-09-06T13:33:25.360Z,1.18
2022-09-06T13:45:25.808Z,1.12
2022-09-06T13:57:26.306Z,0.22
2022-09-06T14:09:26.736Z,0.27
2022-09-06T14:21:27.182Z,0.48
2022-09-06T14:33:27.642Z,0.39
2022-09-06T14:45:28.124Z,0.19
2022-09-06T14:57:28.774Z,0.32
2022-09-06T15:09:29.000Z,0.53
2022-09-06T15:21:29.435Z,1.68
2022-09-06T15:33:30.150Z,1.55
2022-09-06T15:45:30.368Z,1.33
2022-09-06T15:57:30.829Z,0.44
2022-09-06T16:09:31.254Z,0.76
2022-09-06T16:21:31.780Z,0.29
2022-09-06T16:33:32.215Z,0.03
2022-09-06T16:45:32.661Z,1.28
2022-09-06T16:57:33.083Z,0.34
2022-09-06T17:09:33.596Z,0.09
2022-09-06T17:21:34.041Z,0.18
2022-09-06T17:33:34.499Z,0.03
2022-09-06T17:45:34.989Z,0.16
2022-09-06T17:57:35.434Z,0.15
2022-09-06T18:09:35.812Z,0.51
2022-09-06T18:21:36.334Z,0.35
2022-09-06T18:33:36.771Z,0.09
2022-09-06T18:45:37.271Z,0.58
2022-09-06T18:57:37.667Z,0.07
2022-09-06T19:09:38.175Z,0.14
2022-09-06T19:21:41.982Z,0.15
2022-09-06T19:33:39.068Z,0.25
2022-09-06T19:45:39.485Z,0.00
2022-09-06T19:57:39.949Z,0.24
2022-09-06T20:09:40.424Z,0.04
2022-09-06T20:21:40.879Z,0.02
2022-09-06T20:33:43.748Z,0.00
2022-09-06T20:45:41.746Z,0.03
2022-09-06T20:57:42.231Z,0.01
2022-09-06T21:09:42.698Z,0.00
2022-09-06T21:21:43.135Z,0.00
2022-09-06T21:33:43.603Z,0.00
2022-09-06T21:45:44.067Z,0.00
2022-09-06T21:57:44.536Z,0.00
2022-09-06T22:09:44.946Z,0.00
2022-09-06T22:21:45.425Z,0.01
2022-09-06T22:33:45.884Z,0.00
2022-09-06T22:45:51.212Z,0.04
2022-09-06T22:57:46.784Z,0.26
2022-09-06T23:09:47.224Z,0.19
2022-09-06T23:21:47.633Z,0.67
2022-09-06T23:33:48.109Z,0.14
2022-09-06T23:45:48.613Z,0.02
2022-09-06T23:57:49.065Z,0.16
